Tiempo atmosférico en la estación meteorológica de Ribadeo, Lugo (43 m.)



Fecha
DESCASC
Temp. máxima en grados centígrados (hora)
DESCASC
Temp. mínima en grados centígrados (hora)
DESCASC
Temp. media en grados centígrados
DESCASC
Racha de viento máxima en m/sg (hora)
DESCASC
Velocidad máxima media en intervalos de 10 minutos(hora)
DESCASC
Precipitaciones diarias en mm
DESCASC
Precipitaciones de 00:00 a 06:00 en mm
DESCASC
Precipitaciones de 06:00 a 12:00 en mm
DESCASC
Precipitaciones de 12:00 a 18:00 en mm
DESCASC
Precipitaciones de 18:00 a 24:00 en mm
DESCASC
16-06-2019 -- (--) -- (--) -- -- (--) -- (--) -- 0 0 0 --
15-06-2019 19.8 (13:50) 13.1 (05:50) 16.4 10.83 (09:40) 7.5 (09:40) 0 0 0 0 0
14-06-2019 17.5 (16:00) 9.2 (04:30) 13.3 5.83 (16:00) 3.61 (03:00) 0 0 0 0 0
13-06-2019 16.3 (17:30) 10.3 (00:00) 13.3 5 (17:10) 2.78 (14:30) 0.2 0 0 0.2 0
12-06-2019 16.4 (16:00) 10.8 (00:00) 13.6 7.5 (16:00) 4.17 (10:30) 3.8 3.8 0 0 0
11-06-2019 16.4 (17:40) 11.5 (00:00) 13.9 8.33 (21:40) 4.72 (12:30) 1.4 0.4 0.2 0 0.8
10-06-2019 17.1 (14:20) 10.8 (00:00) 14 7.5 (16:30) 4.44 (16:30) 0 0 0 0 0
09-06-2019 15.2 (18:40) 11.7 (00:00) 13.4 5.83 (00:30) 3.89 (00:30) 15.6 0.4 11.2 4 0
08-06-2019 16.4 (15:50) 9.7 (00:00) 13 6.94 (22:00) 4.17 (07:00) 0 0 0 0 0
07-06-2019 17.4 (14:50) 10.3 (00:00) 13.8 15 (02:00) 8.61 (03:10) 5.4 4.8 0.2 0.4 0
06-06-2019 17.9 (18:00) 11 (00:00) 14.4 18.89 (22:20) 10 (22:20) 6.4 0 0.2 5.8 0.4
05-06-2019 15.8 (11:30) 11.4 (00:00) 13.6 8.89 (11:40) 5.56 (07:30) 5.4 0 1.2 4.2 0
04-06-2019 20.3 (13:00) 13.5 (00:00) 16.9 14.44 (07:00) 8.61 (08:30) 1.2 0 0 0 1.2
03-06-2019 17.3 (00:00) 15.4 (00:00) 16.3 4.44 (12:30) 2.78 (15:00) 4.4 0.2 3.8 0.2 0.2
02-06-2019 21.3 (14:50) 13 (00:00) 17.1 7.22 (21:10) 4.72 (20:10) 0 0 0 0 0
01-06-2019 26.2 (11:40) 14.6 (00:00) 20.4 5.56 (15:40) 3.33 (15:20) 0 0 0 0 0
31-05-2019 24 (14:20) 12.1 (00:00) 18.1 4.72 (18:10) 2.78 (14:30) 0 0 0 0 0
30-05-2019 20.3 (15:30) 11 (00:00) 15.6 4.44 (12:00) 2.78 (05:50) 0 0 0 0 0
29-05-2019 18.1 (16:20) 10.3 (00:00) 14.2 7.5 (16:00) 4.72 (18:10) 0 0 0 0 0
28-05-2019 17.3 (15:30) 10.8 (00:00) 14 6.39 (16:00) 3.33 (12:50) 0 0 0 0 0
27-05-2019 16.3 (13:00) 13.2 (00:00) 14.7 6.39 (13:20) 3.33 (05:40) 3.2 0 3.2 0 0
26-05-2019 17.9 (15:40) 11 (00:00) 14.4 5.83 (16:20) 2.78 (16:00) 0 0 0 0 0
25-05-2019 17.3 (13:00) 11.7 (00:00) 14.5 5.56 (17:40) 3.06 (18:40) 0 0 0 0 0
24-05-2019 17.2 (15:50) 12.3 (00:00) 14.8 6.67 (10:10) 3.89 (15:20) 0.2 0 0.2 0 0
23-05-2019 19.9 (13:20) 11.3 (00:00) 15.6 12.22 (19:10) 6.67 (18:00) 0 0 0 0 0
22-05-2019 17.9 (16:00) 10.3 (00:00) 14.1 4.44 (12:50) 2.5 (12:50) 0 0 0 0 0
21-05-2019 16.5 (14:30) 10.3 (07:20) 13.4 10 (15:10) 6.39 (15:20) 0 0 0 0 0

Gráficas

Temp. máximas Temp. mínimas Temp. medias Precipitaciones Rachas de viento máximas Velocidades máximas media en intervalos de 10 minutos

Datos horarios

Fecha y hora oficial Temperatura (ºC) Velocidad del viento (km/h) Dirección del viento Racha (km/h) Dirección de racha Precipitación (mm) Presión (hPa) Tendencia (hPa) Humedad (%)
2019-06-19 23:00:00 15.4 6 Sur 8 Sur 0 -- -- 95
2019-06-19 22:00:00 15.6 4 Sur 6 Sudeste 0.4 -- -- 94
2019-06-19 21:00:00 16 2 Sur 4 Sur 0 -- -- 93
2019-06-19 20:00:00 15.9 0 Calma 6 Oeste 0 -- -- 93
2019-06-19 19:00:00 15.7 3 Oeste 9 Noroeste 0.2 -- -- 95
2019-06-19 18:00:00 15.8 5 Oeste 15 Oeste 1 -- -- 95
2019-06-19 17:00:00 16.1 8 Noroeste 14 Oeste 0.6 -- -- 94
2019-06-19 16:00:00 16.2 6 Noroeste 14 Noroeste 0.2 -- -- 91
2019-06-19 15:00:00 16.5 8 Noroeste -- -- -- -- -- 92
2019-06-19 14:00:00 -- -- -- -- -- -- -- -- --
2019-06-19 13:00:00 -- -- -- -- -- -- -- -- --
2019-06-19 12:00:00 16.7 7 Noroeste 23 Sudoeste 0 -- -- 90
2019-06-19 11:00:00 19.4 13 Sudoeste 24 Sur -- -- -- 74
2019-06-19 10:00:00 18.1 16 Sur 30 Sur 0 -- -- 75
2019-06-19 09:00:00 17.8 7 Sudoeste 17 Sudoeste 0 -- -- 75
2019-06-19 08:00:00 16.9 2 Norte 23 Sudoeste 0 -- -- 76
2019-06-19 07:00:00 17.4 10 Sudoeste 28 Sur 0 -- -- 73
2019-06-19 06:00:00 17.3 8 Sudoeste 24 Sudoeste 0 -- -- 72
2019-06-19 05:00:00 17.5 8 Sudoeste 22 Sudoeste 0 -- -- 71
2019-06-19 04:00:00 17.4 7 Sudoeste 20 Sur 0 -- -- 73
2019-06-19 03:00:00 17.9 7 Sudoeste 24 Sudeste 0 -- -- 70
2019-06-19 02:00:00 18.1 4 Oeste 22 Sudoeste 0 -- -- 70
2019-06-19 01:00:00 18.6 12 Sudoeste 29 Sudoeste 0 -- -- 69
2019-06-19 00:00:00 18.6 14 Sur 27 Sur 0 -- -- 69
2019-06-18 23:00:00 16 7 Sur 15 Sur 0 -- -- 90
2019-06-18 22:00:00 16.9 7 Sur 11 Sudeste 0 -- -- 92
2019-06-18 21:00:00 17.9 9 Sur 15 Sudeste 0 -- -- 89
2019-06-18 20:00:00 18.1 12 Este 22 Sudeste 0 -- -- 87
2019-06-18 19:00:00 16.7 8 Este 14 Nordeste 0.8 -- -- 93
2019-06-18 18:00:00 17 3 Nordeste 17 Nordeste 1.6 -- -- 93
2019-06-18 17:00:00 17.7 8 Nordeste 21 Nordeste 0 -- -- 86
2019-06-18 16:00:00 18 13 Este 21 Este 0 -- -- 85
2019-06-18 15:00:00 19.7 9 Nordeste 21 Nordeste 0 -- -- 76
2019-06-18 14:00:00 19.1 12 Este 17 Este 0 -- -- 81
2019-06-18 13:00:00 18 6 Norte 14 Norte 0 -- -- 84
2019-06-18 12:00:00 18.3 8 Norte 12 Nordeste 0.6 -- -- 89
2019-06-18 11:00:00 16.4 5 Noroeste 9 Noroeste 0.2 -- -- 92
2019-06-18 10:00:00 16 4 Oeste 9 Noroeste 0 -- -- 92
2019-06-18 09:00:00 16.3 3 Noroeste 8 Noroeste 0 -- -- 88
2019-06-18 08:00:00 15.3 3 Oeste 11 Sur 0 -- -- 93
2019-06-18 07:00:00 13.3 6 Sur 9 Sur 0 -- -- 94
2019-06-18 06:00:00 14.1 4 Sur 11 Sudeste 0 -- -- 93
2019-06-18 05:00:00 14.7 5 Sur 19 Sudeste 0 -- -- 91
2019-06-18 04:00:00 15.3 6 Sudeste 9 Sudeste 0 -- -- 92
2019-06-18 03:00:00 15.4 3 Sur 7 Sudoeste 0 -- -- 94
2019-06-18 02:00:00 15 5 Oeste 9 Oeste 0 -- -- 94
2019-06-18 01:00:00 14.6 4 Oeste 6 Oeste 0 -- -- 94
2019-06-18 00:00:00 14.6 3 Sur 8 Sur 0 -- -- 92
2019-06-17 23:00:00 15.5 0 Calma 7 Este 0 -- -- 91
2019-06-17 22:00:00 16 3 Nordeste 6 Nordeste 0 -- -- 90
2019-06-17 21:00:00 16.4 3 Nordeste 9 Este 0 -- -- 87
2019-06-17 20:00:00 16.7 4 Nordeste 7 Este 0 -- -- 86
2019-06-17 19:00:00 16.5 6 Nordeste 13 Nordeste 0 -- -- 87
2019-06-17 18:00:00 17.3 7 Nordeste 13 Nordeste 0 -- -- 83
2019-06-17 17:00:00 17.4 5 Norte 13 Nordeste 0 -- -- 84
2019-06-17 16:00:00 17.5 8 Nordeste 15 Nordeste 0 -- -- 83
2019-06-17 15:00:00 18 9 Nordeste 15 Norte 0 -- -- 80
2019-06-17 14:00:00 17.8 6 Nordeste 14 Nordeste 0 -- -- 80
2019-06-17 13:00:00 17.4 6 Nordeste 12 Nordeste 0 -- -- 77
2019-06-17 12:00:00 17.1 7 Nordeste 12 Nordeste 0 -- -- 79
2019-06-17 11:00:00 16.5 5 Nordeste 11 Nordeste 0 -- -- 82
2019-06-17 10:00:00 16.2 7 Nordeste 11 Este 0 -- -- 83
2019-06-17 09:00:00 16 6 Nordeste 10 Nordeste 0 -- -- 85
2019-06-17 08:00:00 15.5 0 Calma 5 Noroeste 0 -- -- 86
2019-06-17 07:00:00 15.4 0 Calma 8 Norte 0 -- -- 86
2019-06-17 06:00:00 15.6 4 Nordeste 8 Nordeste 0 -- -- 86
2019-06-17 05:00:00 15.7 5 Nordeste 13 Nordeste 0 -- -- 87
2019-06-17 04:00:00 15.7 5 Nordeste 13 Nordeste 0 -- -- 89
2019-06-17 03:00:00 15.8 9 Nordeste 16 Nordeste 0 -- -- 89
2019-06-17 02:00:00 15.8 8 Nordeste 17 Este 0 -- -- 88
2019-06-17 01:00:00 15.9 8 Nordeste 15 Este 0 -- -- 90
2019-06-17 00:00:00 16 7 Este 16 Este 0 -- -- 88
2019-06-16 23:00:00 16 9 Este 16 Este 0 -- -- 86
2019-06-16 22:00:00 16 6 Nordeste 14 Norte 0 -- -- 87
2019-06-16 21:00:00 16.5 10 Nordeste 17 Nordeste 0 -- -- 84
2019-06-16 20:00:00 16.7 8 Nordeste 19 Nordeste 0 -- -- 81
2019-06-16 19:00:00 17.7 8 Norte 20 Nordeste 0 -- -- 79
2019-06-16 18:00:00 17.9 12 Nordeste 26 Este 0 -- -- 78
2019-06-16 17:00:00 18.2 14 Nordeste 27 Nordeste 0 -- -- 76
2019-06-16 16:00:00 18.5 16 Nordeste 26 Nordeste 0 -- -- 77
2019-06-16 15:00:00 18.4 13 Nordeste 22 Nordeste 0 -- -- 72
2019-06-16 14:00:00 17.9 8 Norte 17 Norte 0 -- -- 76
2019-06-16 13:00:00 17.6 8 Norte 17 Nordeste 0 -- -- 75
2019-06-16 12:00:00 17.4 6 Norte 15 Nordeste 0 -- -- 74
2019-06-16 11:00:00 17.1 6 Norte 12 Noroeste 0 -- -- 75
2019-06-16 10:00:00 16.7 4 Nordeste 8 Nordeste 0 -- -- 78
2019-06-16 09:00:00 15.6 3 Nordeste 5 Sur 0 -- -- 81
2019-06-16 08:00:00 12 4 Sur 11 Sur 0 -- -- 91
2019-06-16 07:00:00 10.1 5 Sur 12 Sudeste 0 -- -- 92
2019-06-16 06:00:00 10.4 9 Sur 12 Sur 0 -- -- 91
2019-06-16 05:00:00 11 10 Sur 13 Sudeste 0 -- -- 91
2019-06-16 04:00:00 11.5 6 Sur 10 Sudeste 0 -- -- 93
2019-06-16 03:00:00 11 7 Sur 9 Sudeste 0 -- -- 93
2019-06-16 02:00:00 11.6 6 Sur 9 Sur 0 -- -- 91
2019-06-16 01:00:00 12.8 7 Sur 9 Sur 0 -- -- 87
2019-06-16 00:00:00 14.1 5 Sudeste 10 Este 0 -- -- 85
2019-06-15 23:00:00 14.5 5 Sudeste 13 Este 0 -- -- 83
2019-06-15 22:00:00 15.7 8 Este 13 Este 0 -- -- 79
2019-06-15 21:00:00 16.4 5 Nordeste 17 Oeste 0 -- -- 77
2019-06-15 20:00:00 17.6 6 Noroeste 20 Noroeste 0 -- -- 72
2019-06-15 19:00:00 17.6 9 Noroeste 22 Noroeste 0 -- -- 75
2019-06-15 18:00:00 17.7 11 Noroeste 23 Noroeste 0 -- -- 78
2019-06-15 17:00:00 17.6 8 Noroeste 23 Noroeste 0 -- -- 77
2019-06-15 16:00:00 18.5 10 Norte 23 Oeste 0 -- -- 68
2019-06-15 15:00:00 19.1 12 Sudoeste 23 Oeste 0 -- -- 52
2019-06-15 14:00:00 19.7 21 Oeste 33 Oeste 0 -- -- 53
2019-06-15 13:00:00 18.7 15 Sudoeste 33 Sur 0 -- -- 51
2019-06-15 12:00:00 19.2 16 Sudoeste 34 Sudoeste 0 -- -- 53
2019-06-15 11:00:00 17.8 19 Sur 35 Sur 0 -- -- 55
2019-06-15 10:00:00 16.6 22 Sur 39 Sur 0 -- -- 60
2019-06-15 09:00:00 15.6 20 Sur 29 Sur 0 -- -- 70
2019-06-15 08:00:00 14.1 13 Sur 23 Sur 0 -- -- 74
2019-06-15 07:00:00 13.7 11 Sudoeste 24 Sur 0 -- -- 76
2019-06-15 06:00:00 13.1 12 Sur 19 Sur 0 -- -- 83
2019-06-15 05:00:00 14 12 Sur 22 Sur 0 -- -- 79
2019-06-15 04:00:00 13.9 4 Sudoeste 20 Sudoeste 0 -- -- 81
2019-06-15 03:00:00 14.3 9 Sudoeste 21 Sudoeste 0 -- -- 75
2019-06-15 02:00:00 14.4 11 Sur 22 Sur 0 -- -- 76
2019-06-15 01:00:00 14.2 12 Sur 21 Sur 0 -- -- 79
2019-06-15 00:00:00 14 9 Sur 14 Sur 0 -- -- 81
2019-06-14 23:00:00 14.4 9 Sur 14 Sur 0 -- -- 80
2019-06-14 22:00:00 14.5 4 Sur 8 Sudeste 0 -- -- 83
2019-06-14 21:00:00 14.6 3 Noroeste 13 Noroeste 0 -- -- 79
2019-06-14 20:00:00 15.3 4 Noroeste 10 Noroeste 0 -- -- 79
2019-06-14 19:00:00 15.5 5 Norte 18 Noroeste 0 -- -- 72
2019-06-14 18:00:00 16.7 9 Noroeste 16 Noroeste 0 -- -- 68
2019-06-14 17:00:00 16.3 8 Norte 17 Noroeste 0 -- -- 73
2019-06-14 16:00:00 17.5 8 Nordeste 21 Este 0 -- -- 69
2019-06-14 15:00:00 16.6 8 Norte 17 Nordeste 0 -- -- 73
2019-06-14 14:00:00 17 10 Nordeste 17 Nordeste 0 -- -- 72
2019-06-14 13:00:00 17.1 8 Norte 16 Norte 0 -- -- 72
2019-06-14 12:00:00 15.3 6 Norte 14 Norte 0 -- -- 77
2019-06-14 11:00:00 15.3 4 Este 14 Sur 0 -- -- 73
2019-06-14 10:00:00 14.3 10 Sur 15 Sur 0 -- -- 80
2019-06-14 09:00:00 12.7 2 Este 5 Sudeste 0 -- -- 90
2019-06-14 08:00:00 11.3 2 Sudoeste 12 Sur 0 -- -- 94
2019-06-14 07:00:00 10.3 7 Sur 12 Sudeste 0 -- -- 95
2019-06-14 06:00:00 10.5 4 Sur 10 Sur 0 -- -- 97
2019-06-14 05:00:00 9.4 6 Sur 12 Sur 0 -- -- 96
2019-06-14 04:00:00 9.4 8 Sur 13 Sudeste 0 -- -- 94
2019-06-14 03:00:00 9.7 13 Sudeste 14 Sudeste 0 -- -- 95
2019-06-14 02:00:00 9.7 6 Sur 13 Sudeste 0 -- -- 95
2019-06-14 01:00:00 9.9 6 Sur 8 Sur 0 -- -- 93
2019-06-14 00:00:00 10.3 4 Sur 8 Sur 0 -- -- 91
2019-06-13 23:00:00 11.2 5 Sur 9 Sudeste 0 -- -- 88
2019-06-13 22:00:00 14.1 3 Este 9 Este 0 -- -- 78
2019-06-13 21:00:00 14.7 6 Nordeste 12 Norte 0 -- -- 74
2019-06-13 20:00:00 15 5 Norte 14 Nordeste 0 -- -- 72
2019-06-13 19:00:00 15.7 6 Norte 16 Nordeste 0 -- -- 73
2019-06-13 18:00:00 16 10 Nordeste 18 Norte 0 -- -- 72
2019-06-13 17:00:00 15.5 9 Nordeste 17 Nordeste 0 -- -- 76
2019-06-13 16:00:00 15.9 6 Norte 15 Nordeste 0 -- -- 72
2019-06-13 15:00:00 15.3 8 Norte 17 Noroeste 0.2 -- -- 74
2019-06-13 14:00:00 14.6 7 Norte 18 Nordeste 0 -- -- 81
2019-06-13 13:00:00 15.3 8 Norte 15 Norte 0 -- -- 74
2019-06-13 12:00:00 14.6 5 Norte 14 Noroeste 0 -- -- 78
2019-06-13 11:00:00 15.2 8 Norte 15 Noroeste 0 -- -- 76
2019-06-13 10:00:00 14.6 5 Oeste 9 Oeste 0 -- -- 80
2019-06-13 09:00:00 13.1 6 Sudeste 10 Sudeste 0 -- -- 86
2019-06-13 08:00:00 11.9 4 Oeste 8 Oeste 0 -- -- 93
2019-06-13 07:00:00 11.6 5 Oeste 9 Oeste 0 -- -- 93
2019-06-13 06:00:00 11.5 6 Oeste 11 Oeste 0 -- -- 93
2019-06-13 05:00:00 10.6 2 Sudoeste 6 Oeste 0 -- -- 92
2019-06-13 04:00:00 11.3 5 Sur 9 Sur 0 -- -- 91
2019-06-13 03:00:00 11.8 3 Sudoeste 9 Sudeste 0 -- -- 91
2019-06-13 02:00:00 11.7 7 Sur 8 Sur 0 -- -- 91
2019-06-13 01:00:00 12.1 6 Sur 9 Sur 0 -- -- 89
2019-06-13 00:00:00 12.2 4 Sur 5 Sur 0 -- -- 90
2019-06-12 23:00:00 11.9 5 Sur 7 Sur 0 -- -- 89
2019-06-12 22:00:00 13.6 0 Calma 10 Noroeste 0 -- -- 79
2019-06-12 21:00:00 14 5 Noroeste 14 Noroeste 0 -- -- 78
2019-06-12 20:00:00 15.1 8 Noroeste 17 Noroeste 0 -- -- 72
2019-06-12 19:00:00 14.7 9 Noroeste 18 Noroeste 0 -- -- 73
2019-06-12 18:00:00 14.2 8 Noroeste 22 Noroeste 0 -- -- 77
2019-06-12 17:00:00 15.1 12 Noroeste 23 Noroeste 0 -- -- 74
2019-06-12 16:00:00 16.4 12 Noroeste 27 Noroeste 0 -- -- 70
2019-06-12 15:00:00 15.8 9 Noroeste 24 Noroeste 0 -- -- 70
2019-06-12 14:00:00 15.9 12 Noroeste 27 Norte 0 -- -- 71
2019-06-12 13:00:00 15.8 10 Noroeste 18 Noroeste 0 -- -- 67
2019-06-12 12:00:00 15.3 10 Noroeste 18 Oeste 0 -- -- 70
2019-06-12 11:00:00 15.3 10 Oeste 22 Sudoeste 0 -- -- 65
2019-06-12 10:00:00 13.7 10 Sudoeste 19 Sudoeste 0 -- -- 72
2019-06-12 09:00:00 13.6 9 Sudoeste 19 Sudoeste 0 -- -- 74
2019-06-12 08:00:00 11.6 9 Sudoeste 19 Sudoeste 0 -- -- 80
2019-06-12 07:00:00 10.8 8 Sudoeste 16 Sudoeste 0 -- -- 83
2019-06-12 06:00:00 11.2 9 Sudoeste 18 Sudoeste 0 -- -- 83
2019-06-12 05:00:00 11.5 11 Oeste 21 Oeste 0 -- -- 84
2019-06-12 04:00:00 11.6 10 Oeste 20 Oeste 1.6 -- -- 88
2019-06-12 03:00:00 11.6 5 Sur 20 Sudoeste 2.2 -- -- 88
2019-06-12 02:00:00 11.7 6 Sudoeste 17 Sudoeste 0 -- -- 81
2019-06-12 01:00:00 12.1 9 Oeste 15 Oeste 0 -- -- 83
2019-06-12 00:00:00 12.6 10 Oeste 19 Oeste 0 -- -- 84
2019-06-11 23:00:00 12.4 8 Oeste 18 Oeste 0 -- -- 87
2019-06-11 22:00:00 12.7 8 Noroeste 30 Noroeste 0.8 -- -- 86
2019-06-11 21:00:00 14.4 11 Noroeste 28 Noroeste 0 -- -- 77
2019-06-11 20:00:00 14.6 13 Noroeste 23 Noroeste 0 -- -- 79
2019-06-11 19:00:00 15.2 13 Noroeste 25 Noroeste 0 -- -- 75
2019-06-11 18:00:00 16.2 13 Noroeste 30 Noroeste 0 -- -- 71
2019-06-11 17:00:00 15.5 12 Noroeste 23 Noroeste 0 -- -- 74
2019-06-11 16:00:00 15.8 12 Noroeste 28 Noroeste 0 -- -- 73
2019-06-11 15:00:00 16 14 Noroeste 27 Noroeste 0 -- -- 75
2019-06-11 14:00:00 16 12 Noroeste 28 Noroeste 0 -- -- 72
2019-06-11 13:00:00 15.4 13 Noroeste 27 Noroeste 0 -- -- 71
2019-06-11 12:00:00 15.1 15 Noroeste 25 Noroeste 0 -- -- 73
2019-06-11 11:00:00 14.7 13 Noroeste 23 Noroeste 0 -- -- 71
2019-06-11 10:00:00 14 10 Noroeste 24 Norte 0 -- -- 75
2019-06-11 09:00:00 13.6 12 Noroeste 25 Noroeste 0 -- -- 74
2019-06-11 08:00:00 12.5 6 Noroeste 24 Norte 0.2 -- -- 81
2019-06-11 07:00:00 12 7 Noroeste 18 Noroeste 0 -- -- 79
2019-06-11 06:00:00 11.5 6 Noroeste 17 Noroeste 0 -- -- 80
2019-06-11 05:00:00 12.5 9 Noroeste 19 Noroeste 0 -- -- 84
2019-06-11 04:00:00 12.1 6 Oeste 24 Noroeste 0.2 -- -- 91
2019-06-11 03:00:00 12.6 8 Noroeste 19 Noroeste 0.2 -- -- 84
2019-06-11 02:00:00 12.9 8 Noroeste 14 Norte 0 -- -- 86
2019-06-11 01:00:00 12.8 4 Noroeste 13 Noroeste 0 -- -- 88
2019-06-11 00:00:00 12.9 4 Norte 15 Noroeste 0 -- -- 88
2019-06-10 23:00:00 13.6 6 Noroeste 14 Noroeste 0 -- -- 80
2019-06-10 22:00:00 13.8 8 Noroeste 14 Noroeste 0 -- -- 81
2019-06-10 21:00:00 14.2 8 Noroeste 14 Noroeste 0 -- -- 79
2019-06-10 20:00:00 14.5 7 Noroeste 14 Noroeste 0 -- -- 81
2019-06-10 19:00:00 14.4 8 Noroeste 17 Norte 0 -- -- 76
2019-06-10 18:00:00 14.9 8 Noroeste 20 Norte 0 -- -- 76
2019-06-10 17:00:00 15.6 12 Noroeste 27 Noroeste 0 -- -- 76
2019-06-10 16:00:00 17.1 12 Noroeste 26 Noroeste 0 -- -- 73
2019-06-10 15:00:00 16.3 11 Noroeste 23 Noroeste 0 -- -- 74
2019-06-10 14:00:00 16.8 11 Noroeste 21 Noroeste 0 -- -- 74
2019-06-10 13:00:00 16.2 12 Noroeste 21 Noroeste 0 -- -- 71
2019-06-10 12:00:00 16.5 8 Norte 14 Norte 0 -- -- 69
2019-06-10 11:00:00 15.6 6 Noroeste 16 Noroeste 0 -- -- 72
2019-06-10 10:00:00 15 3 Noroeste 10 Nordeste 0 -- -- 74
2019-06-10 09:00:00 13.5 2 Este 6 Sur 0 -- -- 84
2019-06-10 08:00:00 11.3 5 Sur 8 Sur 0 -- -- 94
2019-06-10 07:00:00 11.4 7 Sur 9 Sudeste 0 -- -- 94
2019-06-10 06:00:00 11.2 5 Sur 8 Sur 0 -- -- 95
2019-06-10 05:00:00 10.8 4 Sur 5 Sur 0 -- -- 95
2019-06-10 04:00:00 10.9 4 Sur 5 Sudeste 0 -- -- 95
2019-06-10 03:00:00 10.9 2 Sudoeste 5 Sur 0 -- -- 94
2019-06-10 02:00:00 11 4 Sur 10 Sur 0 -- -- 93
2019-06-10 01:00:00 11.8 3 Sur 4 Sur 0 -- -- 92
2019-06-10 00:00:00 12.2 3 Sur 5 Sur 0 -- -- 90
2019-06-09 23:00:00 12.8 0 Calma 6 Sudeste 0 -- -- 88
2019-06-09 22:00:00 13.3 2 Sudeste 10 Nordeste 0 -- -- 85
2019-06-09 21:00:00 13.8 6 Nordeste 13 Nordeste 0 -- -- 80
2019-06-09 20:00:00 14.6 8 Nordeste 14 Nordeste 0 -- -- 77
2019-06-09 19:00:00 14.8 8 Nordeste 13 Nordeste 0 -- -- 76
2019-06-09 18:00:00 14.4 6 Nordeste 14 Este 0 -- -- 79
2019-06-09 17:00:00 14.5 5 Norte 10 Nordeste 0 -- -- 83
2019-06-09 16:00:00 13.7 5 Norte 11 Noroeste 0 -- -- 84
2019-06-09 15:00:00 13.1 5 Este 9 Nordeste 0.2 -- -- 93
2019-06-09 14:00:00 12.5 5 Oeste 8 Oeste 1.2 -- -- 96
2019-06-09 13:00:00 11.8 4 Noroeste 9 Norte 2.6 -- -- 95
2019-06-09 12:00:00 12 5 Norte 15 Norte 0.6 -- -- 91
2019-06-09 11:00:00 12.1 6 Noroeste 14 Norte 2.6 -- -- 95
2019-06-09 10:00:00 12 8 Norte 18 Este 8 -- -- 95
2019-06-09 09:00:00 13.1 14 Nordeste 21 Este 0 -- -- 93
2019-06-09 08:00:00 13.3 8 Este 15 Este 0 -- -- 92
2019-06-09 07:00:00 13 5 Este 9 Este 0 -- -- 91
2019-06-09 06:00:00 13.2 0 Calma 5 Sudeste 0.4 -- -- 90
2019-06-09 05:00:00 13.3 4 Sur 9 Sudeste 0 -- -- 87
2019-06-09 04:00:00 13.2 5 Sudeste 8 Sudeste 0 -- -- 87
2019-06-09 03:00:00 13 5 Sur 9 Sudeste 0 -- -- 87
2019-06-09 02:00:00 13.2 4 Sur 12 Este 0 -- -- 86
2019-06-09 01:00:00 13.8 10 Este 21 Este 0 -- -- 84
2019-06-09 00:00:00 13.9 13 Este 24 Este 0 -- -- 85
2019-06-08 23:00:00 13.9 12 Este 24 Este 0 -- -- 83
2019-06-08 22:00:00 14 14 Este 25 Este 0 -- -- 82
2019-06-08 21:00:00 14.2 11 Nordeste 23 Este 0 -- -- 78
2019-06-08 20:00:00 14.5 12 Nordeste 20 Nordeste 0 -- -- 75
2019-06-08 19:00:00 14.6 13 Nordeste 20 Este 0 -- -- 72
2019-06-08 18:00:00 15 11 Este 22 Este 0 -- -- 70
2019-06-08 17:00:00 15.5 11 Nordeste 22 Este 0 -- -- 68
2019-06-08 16:00:00 16.2 12 Nordeste 21 Nordeste 0 -- -- 66
2019-06-08 15:00:00 16 10 Nordeste 19 Nordeste 0 -- -- 67
2019-06-08 14:00:00 15.8 8 Norte 17 Nordeste 0 -- -- 64
2019-06-08 13:00:00 16.1 8 Nordeste 14 Nordeste 0 -- -- 66
2019-06-08 12:00:00 15.5 4 Norte 12 Norte 0 -- -- 66
2019-06-08 11:00:00 15.1 3 Norte 8 Nordeste 0 -- -- 66
2019-06-08 10:00:00 14.4 3 Norte 11 Sur 0 -- -- 69
2019-06-08 09:00:00 13.3 7 Sur 16 Sudoeste 0 -- -- 75
2019-06-08 08:00:00 11.7 11 Sur 23 Sur 0 -- -- 76
2019-06-08 07:00:00 9.7 15 Sur 22 Sur 0 -- -- 82
2019-06-08 06:00:00 11.6 10 Sudoeste 16 Sudoeste 0 -- -- 72
2019-06-08 05:00:00 11.3 9 Sur 17 Sur 0 -- -- 74
2019-06-08 04:00:00 11.9 10 Sudoeste 19 Sur 0 -- -- 69
2019-06-08 03:00:00 11.9 10 Sudoeste 17 Sudoeste 0 -- -- 67
2019-06-08 02:00:00 11.5 9 Sudoeste 13 Sudoeste 0 -- -- 67
2019-06-08 01:00:00 10.3 9 Sur 13 Sur 0 -- -- 76
2019-06-08 00:00:00 11.5 7 Sudoeste 15 Sudoeste 0 -- -- 67
2019-06-07 23:00:00 12.3 6 Sudoeste 10 Sudoeste 0 -- -- 67
2019-06-07 22:00:00 14.5 4 Sur 18 Sur 0 -- -- 72
2019-06-07 21:00:00 16 10 Sur 22 Noroeste 0 -- -- 66
2019-06-07 20:00:00 15.3 12 Noroeste 33 Noroeste 0 -- -- 72
2019-06-07 19:00:00 16.9 15 Noroeste 35 Noroeste 0 -- -- 68
2019-06-07 18:00:00 17 12 Oeste 27 Oeste 0 -- -- 52
2019-06-07 17:00:00 16 12 Noroeste 27 Oeste 0 -- -- 71
2019-06-07 16:00:00 15.7 7 Oeste 38 Oeste 0 -- -- 68
2019-06-07 15:00:00 17.1 20 Oeste 44 Oeste 0 -- -- 60
2019-06-07 14:00:00 15.3 17 Oeste 54 Noroeste 0 -- -- 69
2019-06-07 13:00:00 16.1 22 Oeste 54 Oeste 0.4 -- -- 67
2019-06-07 12:00:00 15.6 17 Sudoeste 32 Sudoeste 0 -- -- 64
2019-06-07 11:00:00 14.1 18 Sudoeste 44 Oeste 0 -- -- 69
2019-06-07 10:00:00 14.5 18 Sudoeste 41 Sudoeste 0.2 -- -- 63
2019-06-07 09:00:00 13.7 21 Sudoeste 37 Sudoeste 0 -- -- 67
2019-06-07 08:00:00 12.4 20 Sudoeste 41 Oeste 0 -- -- 71
2019-06-07 07:00:00 11.2 19 Sudoeste 42 Sudoeste 0 -- -- 75
2019-06-07 06:00:00 10.9 23 Sudoeste 44 Sudoeste 0.6 -- -- 81
2019-06-07 05:00:00 10.7 26 Sudoeste 52 Sudoeste 1 -- -- 80
2019-06-07 04:00:00 10.5 22 Sudoeste 51 Sudoeste 1.4 -- -- 78
2019-06-07 03:00:00 10.8 28 Sudoeste 51 Sudoeste 1.6 -- -- 75
2019-06-07 02:00:00 11.2 31 Sudoeste 54 Sudoeste 0 -- -- 72
2019-06-07 01:00:00 11 25 Sudoeste 49 Sudoeste 0.2 -- -- 73
2019-06-07 00:00:00 11.4 27 Sudoeste 51 Sudoeste 0.2 -- -- 76
2019-06-06 23:00:00 12.8 35 Sudoeste 68 Sudoeste 0 -- -- 65
2019-06-06 22:00:00 13.9 26 Sudoeste 53 Sudoeste 0 -- -- 64
2019-06-06 21:00:00 15.1 23 Sudoeste 49 Oeste 0 -- -- 64
2019-06-06 20:00:00 16.6 23 Sudoeste 56 Oeste 0 -- -- 62
2019-06-06 19:00:00 17.4 33 Sudoeste 54 Sur 0.2 -- -- 62
2019-06-06 18:00:00 17.9 17 Sur 49 Sudeste 0 -- -- 69
2019-06-06 17:00:00 16 14 Sudeste 28 Este 1.2 -- -- 83
2019-06-06 16:00:00 13.9 13 Este 19 Este 3.4 -- -- 91
2019-06-06 15:00:00 14.3 3 Oeste 14 Este 0.8 -- -- 86
2019-06-06 14:00:00 14 6 Este 18 Sudeste 0 -- -- 81
2019-06-06 13:00:00 13.4 14 Este 22 Este 0.4 -- -- 80
2019-06-06 12:00:00 13.2 11 Este 19 Este 0 -- -- 77
2019-06-06 11:00:00 12.8 6 Este 10 Este 0.2 -- -- 83
2019-06-06 10:00:00 12.6 5 Sur 13 Este 0 -- -- 77
2019-06-06 09:00:00 12.2 9 Este 14 Este 0 -- -- 79
2019-06-06 08:00:00 11 6 Sur 13 Sur 0 -- -- 80
2019-06-06 07:00:00 11.5 10 Sur 18 Sur 0 -- -- 75
2019-06-06 06:00:00 12.1 12 Sur 24 Sudoeste 0 -- -- 69
2019-06-06 05:00:00 11.9 12 Sudoeste 31 Sur 0 -- -- 71
2019-06-06 04:00:00 11.6 10 Sudoeste 30 Sudoeste 0 -- -- 73
2019-06-06 03:00:00 11.7 19 Sur 33 Sudoeste 0 -- -- 75
2019-06-06 02:00:00 11.9 19 Sudoeste 31 Sur 0 -- -- 74
2019-06-06 01:00:00 11.7 16 Sur 24 Sur 0 -- -- 78
2019-06-06 00:00:00 12 16 Sudoeste 28 Sudoeste 0 -- -- 74
2019-06-05 23:00:00 12.2 16 Sur 22 Sur 0 -- -- 75
2019-06-05 22:00:00 12.6 14 Sur 30 Sur 0 -- -- 75
2019-06-05 21:00:00 14.4 10 Sur 14 Sur 0 -- -- 73
2019-06-05 20:00:00 14.7 8 Oeste 23 Noroeste 0 -- -- 71
2019-06-05 19:00:00 14.7 14 Oeste 31 Norte 0 -- -- 74
2019-06-05 18:00:00 15.3 13 Noroeste 27 Noroeste 0 -- -- 67
2019-06-05 17:00:00 14.9 9 Oeste 21 Noroeste 0 -- -- 68
2019-06-05 16:00:00 14.9 9 Sudeste 19 Sudeste 0 -- -- 73
2019-06-05 15:00:00 14.3 6 Sudoeste 13 Sur 0.8 -- -- 80
2019-06-05 14:00:00 12.7 6 Sudoeste 16 Noroeste 3.2 -- -- 81
2019-06-05 13:00:00 14.3 11 Noroeste 26 Noroeste 0.2 -- -- 79
2019-06-05 12:00:00 11.5 9 Oeste 32 Noroeste 1 -- -- 82
2019-06-05 11:00:00 14.3 11 Sur 27 Sudoeste 0 -- -- 74
2019-06-05 10:00:00 13.7 14 Sudoeste 27 Sudoeste 0 -- -- 76
2019-06-05 09:00:00 12.7 8 Sudoeste 21 Sudoeste 0.2 -- -- 80
2019-06-05 08:00:00 12.1 5 Sudoeste 32 Oeste 0 -- -- 81
2019-06-05 07:00:00 12.1 10 Sudoeste 19 Sudoeste 0 -- -- 77
2019-06-05 06:00:00 12.1 7 Sur 18 Sur 0 -- -- 79
2019-06-05 05:00:00 12.5 10 Sur 15 Sur 0 -- -- 76
2019-06-05 04:00:00 12.6 8 Sudoeste 15 Sudoeste 0 -- -- 75
2019-06-05 03:00:00 12.5 8 Sudoeste 14 Sudoeste 0 -- -- 76
2019-06-05 02:00:00 12.9 6 Oeste 13 Oeste 0 -- -- 76
2019-06-05 01:00:00 13.4 9 Oeste 18 Oeste 0 -- -- 75
2019-06-05 00:00:00 13.5 7 Sudoeste 13 Oeste 0 -- -- 80
2019-06-04 23:00:00 14.1 6 Sudoeste 11 Sudoeste 0 -- -- 82
2019-06-04 22:00:00 14.3 6 Sudeste 9 Sudeste 0 -- -- 90
2019-06-04 21:00:00 14.7 5 Sur 15 Noroeste 0.4 -- -- 84
2019-06-04 20:00:00 14.7 9 Oeste 24 Noroeste 0.8 -- -- 83
2019-06-04 19:00:00 15.9 10 Noroeste 34 Noroeste 0 -- -- 76
2019-06-04 18:00:00 16.3 21 Noroeste 40 Noroeste 0 -- -- 76
2019-06-04 17:00:00 17.9 22 Noroeste 41 Noroeste 0 -- -- 72
2019-06-04 16:00:00 18.5 15 Noroeste 35 Noroeste 0 -- -- 68
2019-06-04 15:00:00 18.7 13 Noroeste 31 Noroeste 0 -- -- 67
2019-06-04 14:00:00 18.2 14 Noroeste 28 Noroeste 0 -- -- 71
2019-06-04 13:00:00 20.3 12 Oeste 38 Oeste 0 -- -- 55
2019-06-04 12:00:00 18.1 23 Oeste 35 Oeste 0 -- -- 61
2019-06-04 11:00:00 16 26 Oeste 43 Sudoeste 0 -- -- 77
2019-06-04 10:00:00 17.2 22 Sudoeste 45 Sudoeste 0 -- -- 74
2019-06-04 09:00:00 17.6 23 Sudoeste 52 Sur 0 -- -- 67
2019-06-04 08:00:00 17.6 30 Sur 51 Sur 0 -- -- 66
2019-06-04 07:00:00 16.9 29 Sur 52 Sudoeste 0 -- -- 67
2019-06-04 06:00:00 16.2 13 Sudoeste 46 Sudoeste 0 -- -- 69
2019-06-04 05:00:00 15.5 19 Sudoeste 45 Sur 0 -- -- 72
2019-06-04 04:00:00 14.6 5 Sudoeste 17 Oeste 0 -- -- 79
2019-06-04 03:00:00 14.4 8 Sur 15 Sur 0 -- -- 89
2019-06-04 02:00:00 15.2 0 Calma 7 Oeste 0 -- -- 99
2019-06-04 01:00:00 15.3 3 Oeste 5 Noroeste 0 -- -- 98
2019-06-04 00:00:00 15.4 3 Noroeste 4 Noroeste 0 -- -- 98
2019-06-03 23:00:00 15.4 2 Sudoeste 5 Este 0 -- -- 98
2019-06-03 22:00:00 15.4 3 Este 6 Este 0 -- -- 98
2019-06-03 21:00:00 15.4 3 Nordeste 8 Nordeste 0.2 -- -- 98
2019-06-03 20:00:00 15.6 5 Nordeste 9 Nordeste 0 -- -- 98
2019-06-03 19:00:00 15.7 4 Nordeste 10 Este 0 -- -- 97
2019-06-03 18:00:00 15.8 7 Nordeste 13 Nordeste 0 -- -- 97
2019-06-03 17:00:00 16.1 8 Nordeste 15 Nordeste 0 -- -- 97
2019-06-03 16:00:00 15.9 9 Nordeste 16 Nordeste 0 -- -- 98
2019-06-03 15:00:00 15.8 10 Nordeste 16 Nordeste 0 -- -- 98
2019-06-03 14:00:00 16 9 Nordeste 15 Norte 0.2 -- -- 97
2019-06-03 13:00:00 16 7 Nordeste 16 Nordeste 0 -- -- 97
2019-06-03 12:00:00 15.9 8 Nordeste 13 Nordeste 0 -- -- 98
2019-06-03 11:00:00 15.5 8 Nordeste 13 Nordeste 0.4 -- -- 99
2019-06-03 10:00:00 15.5 6 Norte 13 Norte 1.4 -- -- 99
2019-06-03 09:00:00 15.5 5 Norte 10 Norte 1 -- -- 99
2019-06-03 08:00:00 15.6 5 Nordeste 9 Norte 0.6 -- -- 98
2019-06-03 07:00:00 15.7 4 Norte 10 Nordeste 0.4 -- -- 98
2019-06-03 06:00:00 15.8 5 Norte 9 Nordeste 0 -- -- 98
2019-06-03 05:00:00 15.8 0 Calma 4 Sudeste 0 -- -- 97
2019-06-03 04:00:00 15.9 3 Sudeste 8 Este 0 -- -- 97
2019-06-03 03:00:00 15.9 5 Nordeste 12 Nordeste 0.2 -- -- 98
2019-06-03 02:00:00 16.4 4 Nordeste 10 Nordeste 0 -- -- 96
2019-06-03 01:00:00 16.6 6 Noroeste 15 Noroeste 0 -- -- 95
2019-06-03 00:00:00 17.3 9 Sudeste 20 Sudeste 0 -- -- 93
2019-06-02 23:00:00 17.4 13 Sudeste 23 Este 0 -- -- 92
2019-06-02 22:00:00 17.7 15 Este 26 Este 0 -- -- 90
2019-06-02 21:00:00 18 15 Este 25 Este 0 -- -- 87
2019-06-02 20:00:00 18.3 14 Este 23 Este 0 -- -- 84
2019-06-02 19:00:00 19.4 12 Este 18 Nordeste 0 -- -- 76
2019-06-02 18:00:00 19.6 13 Este 20 Nordeste 0 -- -- 74
2019-06-02 17:00:00 20.3 11 Nordeste 18 Nordeste 0 -- -- 74
2019-06-02 16:00:00 20.7 9 Nordeste 16 Norte 0 -- -- 71
2019-06-02 15:00:00 21 10 Nordeste 15 Nordeste 0 -- -- 65
2019-06-02 14:00:00 19.7 9 Este 15 Este 0 -- -- 72
2019-06-02 13:00:00 18.4 8 Nordeste 16 Norte 0 -- -- 82
2019-06-02 12:00:00 18.2 9 Nordeste 17 Nordeste 0 -- -- 84
2019-06-02 11:00:00 16.1 5 Nordeste 11 Norte 0 -- -- 90
2019-06-02 10:00:00 16 6 Noroeste 13 Noroeste 0 -- -- 92
2019-06-02 09:00:00 17.3 3 Noroeste 12 Este 0 -- -- 84
2019-06-02 08:00:00 14.8 4 Este 13 Oeste 0 -- -- 97
2019-06-02 07:00:00 14.2 9 Oeste 16 Oeste 0 -- -- 97
2019-06-02 06:00:00 13.3 4 Oeste 10 Oeste 0 -- -- 94
2019-06-02 05:00:00 14.4 2 Este 15 Este 0 -- -- 95
2019-06-02 04:00:00 15.6 5 Oeste 10 Oeste 0 -- -- 96
2019-06-02 03:00:00 14.1 4 Sudeste 8 Sudeste 0 -- -- 91
2019-06-02 02:00:00 14.5 4 Sudoeste 8 Sudoeste 0 -- -- 91
2019-06-02 01:00:00 14.6 3 Sur 6 Sur 0 -- -- 84
2019-06-02 00:00:00 16 4 Oeste 12 Oeste 0 -- -- 81
2019-06-01 23:00:00 16.6 7 Sudeste 10 Oeste 0 -- -- 71
2019-06-01 22:00:00 19.1 7 Oeste 8 Oeste 0 -- -- 68
2019-06-01 21:00:00 22.2 4 Noroeste 8 Noroeste 0 -- -- 49
2019-06-01 20:00:00 24.8 3 Oeste 8 Oeste 0 -- -- 39
2019-06-01 19:00:00 24.1 5 Norte 13 Noroeste 0 -- -- 44
2019-06-01 18:00:00 22.8 6 Noroeste 17 Oeste 0 -- -- 54
2019-06-01 17:00:00 22.4 10 Oeste 19 Noroeste 0 -- -- 64
2019-06-01 16:00:00 23.3 9 Noroeste 20 Noroeste 0 -- -- 66
2019-06-01 15:00:00 24.2 8 Norte 14 Noroeste 0 -- -- 55
2019-06-01 14:00:00 23.6 8 Noroeste 15 Noroeste 0 -- -- 57
2019-06-01 13:00:00 23.4 7 Noroeste 19 Noroeste 0 -- -- 58
2019-06-01 12:00:00 25.8 6 Noroeste 10 Noroeste 0 -- -- 55
2019-06-01 11:00:00 24.7 5 Noroeste 8 Noroeste 0 -- -- 62
2019-06-01 10:00:00 23.1 6 Nordeste 10 Este 0 -- -- 62
2019-06-01 09:00:00 21.8 3 Este 5 Este 0 -- -- 65
2019-06-01 08:00:00 17.7 3 Sur 7 Sur 0 -- -- 81
2019-06-01 07:00:00 14.8 5 Sur 8 Sudeste 0 -- -- 81
2019-06-01 06:00:00 14.9 6 Sur 12 Sur 0 -- -- 84
2019-06-01 05:00:00 15.2 0 Calma 10 Sudeste 0 -- -- 82
2019-06-01 04:00:00 15.6 2 Sudoeste 6 Sur 0 -- -- 80
2019-06-01 03:00:00 15.6 5 Sur 8 Sur 0 -- -- 85
2019-06-01 02:00:00 16.1 0 Calma 9 Sur 0 -- -- 86
2019-06-01 01:00:00 16.2 3 Sur 9 Sudeste 0 -- -- 82
2019-06-01 00:00:00 16.4 0 Calma 9 Sudeste 0 -- -- 81
2019-05-31 23:00:00 17.2 4 Sur 7 Sur 0 -- -- 84
2019-05-31 22:00:00 18.8 0 Calma 4 Noroeste 0 -- -- 83
2019-05-31 21:00:00 19.9 3 Norte 10 Noroeste 0 -- -- 80
2019-05-31 20:00:00 21.3 5 Noroeste 14 Oeste 0 -- -- 76
2019-05-31 19:00:00 21.7 9 Noroeste 17 Noroeste 0 -- -- 75
2019-05-31 18:00:00 22 8 Noroeste 15 Noroeste 0 -- -- 76
2019-05-31 17:00:00 22 8 Noroeste 14 Noroeste 0 -- -- 76
2019-05-31 16:00:00 23 6 Noroeste 12 Nordeste 0 -- -- 72
2019-05-31 15:00:00 23.4 6 Nordeste 15 Nordeste 0 -- -- 69
2019-05-31 14:00:00 23.6 8 Nordeste 14 Nordeste 0 -- -- 66
2019-05-31 13:00:00 23.4 10 Este 15 Nordeste 0 -- -- 62
2019-05-31 12:00:00 22.1 8 Nordeste 12 Norte 0 -- -- 72
2019-05-31 11:00:00 19.5 5 Norte 9 Nordeste 0 -- -- 79
2019-05-31 10:00:00 19 3 Norte 6 Nordeste 0 -- -- 83
2019-05-31 09:00:00 17 0 Calma 5 Noroeste 0 -- -- 90
2019-05-31 08:00:00 14.8 0 Calma 5 Sur 0 -- -- 95
2019-05-31 07:00:00 12.3 4 Sur 8 Sudeste 0 -- -- 96
2019-05-31 06:00:00 12.1 5 Sudeste 8 Sur 0 -- -- 96
2019-05-31 05:00:00 12.4 4 Sur 11 Sur 0 -- -- 95
2019-05-31 04:00:00 12.7 0 Calma 8 Sur 0 -- -- 95
2019-05-31 03:00:00 12.7 3 Sudoeste 4 Sudoeste 0 -- -- 95
2019-05-31 02:00:00 13.1 0 Calma 5 Sudoeste 0 -- -- 94
2019-05-31 01:00:00 14 3 Sudoeste 8 Sudoeste 0 -- -- 93
2019-05-31 00:00:00 14.3 8 Oeste 10 Oeste 0 -- -- 93
2019-05-30 23:00:00 14.8 8 Oeste 10 Oeste 0 -- -- 91
2019-05-30 22:00:00 16.2 3 Noroeste 10 Noroeste 0 -- -- 85
2019-05-30 21:00:00 17.4 6 Noroeste 12 Noroeste 0 -- -- 82
2019-05-30 20:00:00 18.7 7 Noroeste 14 Noroeste 0 -- -- 78
2019-05-30 19:00:00 19.3 8 Noroeste 15 Norte 0 -- -- 79
2019-05-30 18:00:00 19.8 6 Noroeste 13 Norte 0 -- -- 76
2019-05-30 17:00:00 20.2 5 Norte 11 Nordeste 0 -- -- 72
2019-05-30 16:00:00 20 6 Norte 14 Nordeste 0 -- -- 74
2019-05-30 15:00:00 19.6 6 Norte 15 Nordeste 0 -- -- 76
2019-05-30 14:00:00 19.8 8 Nordeste 15 Norte 0 -- -- 74
2019-05-30 13:00:00 19.1 5 Norte 13 Norte 0 -- -- 77
2019-05-30 12:00:00 18.9 8 Nordeste 16 Norte 0 -- -- 81
2019-05-30 11:00:00 17.9 6 Norte 12 Norte 0 -- -- 80
2019-05-30 10:00:00 17.2 5 Nordeste 9 Norte 0 -- -- 80
2019-05-30 09:00:00 15.6 4 Noroeste 8 Oeste 0 -- -- 84
2019-05-30 08:00:00 13.9 4 Sur 8 Sur 0 -- -- 92
2019-05-30 07:00:00 11 6 Sur 12 Sudeste 0 -- -- 94
2019-05-30 06:00:00 11.1 10 Sur 12 Sudeste 0 -- -- 95
2019-05-30 05:00:00 11.2 5 Sur 8 Sur 0 -- -- 95
2019-05-30 04:00:00 11.7 4 Sur 8 Sur 0 -- -- 94
2019-05-30 03:00:00 12.2 4 Sur 6 Sur 0 -- -- 93
2019-05-30 02:00:00 13.5 5 Sudoeste 8 Oeste 0 -- -- 94
2019-05-30 01:00:00 12.9 5 Oeste 8 Oeste 0 -- -- 94
2019-05-30 00:00:00 12.9 3 Oeste 6 Sudoeste 0 -- -- 92
2019-05-29 23:00:00 13.7 3 Sur 5 Nordeste 0 -- -- 89
2019-05-29 22:00:00 14.9 5 Nordeste 16 Nordeste 0 -- -- 86
2019-05-29 21:00:00 15.8 10 Nordeste 19 Nordeste 0 -- -- 84
2019-05-29 20:00:00 16.9 11 Nordeste 23 Nordeste 0 -- -- 79
2019-05-29 19:00:00 17.2 14 Nordeste 25 Este 0 -- -- 76
2019-05-29 18:00:00 17.3 13 Nordeste 24 Este 0 -- -- 79
2019-05-29 17:00:00 17.6 13 Nordeste 23 Nordeste 0 -- -- 80
2019-05-29 16:00:00 17.9 13 Este 27 Este 0 -- -- 71
2019-05-29 15:00:00 17.6 14 Nordeste 25 Nordeste 0 -- -- 77
2019-05-29 14:00:00 17.6 14 Nordeste 24 Este 0 -- -- 77
2019-05-29 13:00:00 17.7 10 Nordeste 21 Nordeste 0 -- -- 79
2019-05-29 12:00:00 17.2 10 Nordeste 17 Norte 0 -- -- 77
2019-05-29 11:00:00 16.5 5 Norte 11 Nordeste 0 -- -- 76
2019-05-29 10:00:00 16 4 Norte 9 Norte 0 -- -- 79
2019-05-29 09:00:00 15.4 3 Nordeste 6 Nordeste 0 -- -- 80
2019-05-29 08:00:00 12.4 6 Sudeste 12 Sur 0 -- -- 91
2019-05-29 07:00:00 10.3 9 Sur 10 Sur 0 -- -- 94
2019-05-29 06:00:00 11.8 6 Sur 9 Sur 0 -- -- 92
2019-05-29 05:00:00 12.2 0 Calma 11 Sudeste 0 -- -- 93
2019-05-29 04:00:00 11.5 9 Sur 13 Sudeste 0 -- -- 94
2019-05-29 03:00:00 10.3 5 Sur 8 Sur 0 -- -- 94
2019-05-29 02:00:00 10.6 5 Sur 9 Sur 0 -- -- 94
2019-05-29 01:00:00 10.9 5 Sur 7 Sudeste 0 -- -- 91
2019-05-29 00:00:00 -- 6 Sur 10 Sudeste 0 -- -- --
2019-05-28 23:00:00 12.4 4 Sudeste 7 Sudeste 0 -- -- 86
2019-05-28 22:00:00 14.2 3 Nordeste 11 Nordeste 0 -- -- 81
2019-05-28 21:00:00 15.1 8 Nordeste 14 Nordeste 0 -- -- 76
2019-05-28 20:00:00 16.1 8 Norte 14 Nordeste 0 -- -- 74
2019-05-28 19:00:00 16.4 8 Norte 15 Norte 0 -- -- 72
2019-05-28 18:00:00 16.6 9 Norte 18 Norte 0 -- -- 73
2019-05-28 17:00:00 16.8 8 Norte 18 Norte 0 -- -- 70
2019-05-28 16:00:00 17.3 9 Norte 23 Norte 0 -- -- 74
2019-05-28 15:00:00 16.9 11 Norte 19 Noroeste 0 -- -- 72
2019-05-28 14:00:00 16.7 10 Noroeste 18 Noroeste 0 -- -- 76
2019-05-28 13:00:00 16.3 10 Noroeste 21 Norte 0 -- -- 73
2019-05-28 12:00:00 15.9 9 Noroeste 17 Norte 0 -- -- 77
2019-05-28 11:00:00 14.6 5 Noroeste 13 Noroeste 0 -- -- 86
2019-05-28 10:00:00 14.4 5 Noroeste 11 Oeste 0 -- -- 86
2019-05-28 09:00:00 14.3 7 Oeste 11 Oeste 0 -- -- 87
2019-05-28 08:00:00 12 2 Oeste 5 Sur 0 -- -- 95
2019-05-28 07:00:00 11 4 Sur 6 Sur 0 -- -- 94
2019-05-28 06:00:00 11.1 2 Sudoeste 6 Sur 0 -- -- 95
2019-05-28 05:00:00 11.3 4 Sur 7 Oeste 0 -- -- 92
2019-05-28 04:00:00 11.6 0 Calma 4 Sur 0 -- -- 92
2019-05-28 03:00:00 11.7 2 Sur 5 Sur 0 -- -- 94
2019-05-28 02:00:00 11.3 3 Sur 4 Sur 0 -- -- 93
2019-05-28 01:00:00 12 3 Sur 4 Sur 0 -- -- 88
2019-05-28 00:00:00 13.2 2 Norte 12 Norte 0 -- -- 82
2019-05-27 23:00:00 13.9 5 Norte 17 Norte 0 -- -- 81
2019-05-27 22:00:00 14.1 3 Norte 10 Norte 0 -- -- 80
2019-05-27 21:00:00 14.7 5 Norte 13 Norte 0 -- -- 80
2019-05-27 20:00:00 15 6 Norte 13 Norte 0 -- -- 77
2019-05-27 19:00:00 15.4 5 Norte 14 Norte 0 -- -- 74
2019-05-27 18:00:00 15.1 5 Norte 13 Norte 0 -- -- 79
2019-05-27 17:00:00 15.5 6 Norte 14 Noroeste 0 -- -- 78
2019-05-27 16:00:00 15.9 9 Norte 17 Norte 0 -- -- 81
2019-05-27 15:00:00 15.8 7 Norte 22 Norte 0 -- -- 85
2019-05-27 14:00:00 15.3 8 Norte 23 Norte 0 -- -- 88
2019-05-27 13:00:00 16.3 12 Noroeste 21 Noroeste 0 -- -- 88
2019-05-27 12:00:00 15.4 10 Noroeste 16 Noroeste 0 -- -- 95
2019-05-27 11:00:00 14.6 6 Noroeste 20 Noroeste 1.4 -- -- 98
2019-05-27 10:00:00 14.3 6 Norte 18 Noroeste 0.8 -- -- 97
2019-05-27 09:00:00 14.8 4 Oeste 6 Oeste 1 -- -- 97
2019-05-27 08:00:00 14.3 4 Sur 6 Sur 0 -- -- 94
2019-05-27 07:00:00 13.8 0 Calma 11 Sur 0 -- -- 94
2019-05-27 06:00:00 13.9 7 Sur 17 Sur 0 -- -- 90
2019-05-27 05:00:00 14 9 Sur 11 Sudeste 0 -- -- 86
2019-05-27 04:00:00 13.8 4 Sur 9 Sur 0 -- -- 86
2019-05-27 03:00:00 13.8 5 Sur 13 Sur 0 -- -- 84
2019-05-27 02:00:00 13.9 6 Sur 10 Sur 0 -- -- 85
2019-05-27 01:00:00 14.2 5 Oeste 9 Sur 0 -- -- 84
2019-05-27 00:00:00 14.3 5 Sur 8 Sur 0 -- -- 83
2019-05-26 23:00:00 14.2 0 Calma 6 Oeste 0 -- -- 84
2019-05-26 22:00:00 14.4 4 Oeste 8 Noroeste 0 -- -- 82
2019-05-26 21:00:00 14.9 3 Noroeste 12 Noroeste 0 -- -- 79
2019-05-26 20:00:00 15.7 5 Norte 13 Nordeste 0 -- -- 77
2019-05-26 19:00:00 16.3 8 Nordeste 17 Norte 0 -- -- 74
2019-05-26 18:00:00 16.3 8 Norte 17 Noroeste 0 -- -- 79
2019-05-26 17:00:00 17.5 9 Norte 21 Noroeste 0 -- -- 73
2019-05-26 16:00:00 17.4 10 Norte 17 Nordeste 0 -- -- 72
2019-05-26 15:00:00 16.8 7 Norte 15 Nordeste 0 -- -- 76
2019-05-26 14:00:00 16.1 6 Norte 14 Noroeste 0 -- -- 79
2019-05-26 13:00:00 16.4 3 Norte 9 Norte 0 -- -- 78
2019-05-26 12:00:00 15.3 5 Nordeste 9 Norte 0 -- -- 78
2019-05-26 11:00:00 14.5 4 Oeste 10 Noroeste 0 -- -- 85
2019-05-26 10:00:00 14.3 5 Noroeste 9 Noroeste 0 -- -- 84
2019-05-26 09:00:00 13.9 3 Noroeste 5 Sudeste 0 -- -- 86
2019-05-26 08:00:00 12.9 5 Sudeste 8 Sur 0 -- -- 92
2019-05-26 07:00:00 12.1 7 Sur 12 Sur 0 -- -- 95
2019-05-26 06:00:00 11.5 6 Sur 9 Sur 0 -- -- 95
2019-05-26 05:00:00 11.2 8 Sur 9 Sudeste 0 -- -- 93
2019-05-26 04:00:00 12.9 2 Sudoeste 7 Sudeste 0 -- -- 93
2019-05-26 03:00:00 12.9 2 Sudeste 6 Sudeste 0 -- -- 95
2019-05-26 02:00:00 12.2 0 Calma 5 Sur 0 -- -- 95
2019-05-26 01:00:00 11.2 3 Sur 5 Sur 0 -- -- 93
2019-05-26 00:00:00 11.7 0 Calma 8 Sur 0 -- -- 91
2019-05-25 23:00:00 12.8 5 Sur 6 Sur 0 -- -- 87
2019-05-25 22:00:00 14.5 4 Nordeste 11 Nordeste 0 -- -- 84
2019-05-25 21:00:00 15.1 8 Nordeste 14 Norte 0 -- -- 82
2019-05-25 20:00:00 16 7 Norte 16 Norte 0 -- -- 79
2019-05-25 19:00:00 16.1 9 Norte 19 Nordeste 0 -- -- 78
2019-05-25 18:00:00 17 9 Norte 20 Nordeste 0 -- -- 74
2019-05-25 17:00:00 17 9 Norte 18 Nordeste 0 -- -- 75
2019-05-25 16:00:00 16.9 9 Nordeste 18 Norte 0 -- -- 74
2019-05-25 15:00:00 17.1 10 Norte 19 Norte 0 -- -- 72
2019-05-25 14:00:00 17.3 7 Norte 16 Norte 0 -- -- 74
2019-05-25 13:00:00 17.3 9 Norte 19 Norte 0 -- -- 73
2019-05-25 12:00:00 16 8 Norte 17 Norte 0 -- -- 74
2019-05-25 11:00:00 16 7 Norte 14 Nordeste 0 -- -- 77
2019-05-25 10:00:00 15.1 7 Nordeste 13 Nordeste 0 -- -- 83
2019-05-25 09:00:00 14.3 6 Norte 10 Norte 0 -- -- 86
2019-05-25 08:00:00 13.3 0 Calma 3 Nordeste 0 -- -- 92
2019-05-25 07:00:00 13.1 0 Calma 10 Norte 0 -- -- 91
2019-05-25 06:00:00 13.5 4 Norte 10 Nordeste 0 -- -- 92
2019-05-25 05:00:00 13.4 3 Nordeste 10 Nordeste 0 -- -- 94
2019-05-25 04:00:00 12.9 2 Sudeste 4 Sur 0 -- -- 94
2019-05-25 03:00:00 13.1 0 Calma 5 Sur 0 -- -- 93
2019-05-25 02:00:00 13.4 0 Calma 6 Nordeste 0 -- -- 92
2019-05-25 01:00:00 14.1 6 Nordeste 10 Norte 0 -- -- 90
2019-05-25 00:00:00 14.1 2 Nordeste 12 Norte 0 -- -- 91
2019-05-24 23:00:00 14.3 4 Norte 12 Norte 0 -- -- 91
2019-05-24 22:00:00 14.4 5 Norte 15 Norte 0 -- -- 90
2019-05-24 21:00:00 15 6 Norte 18 Nordeste 0 -- -- 90
2019-05-24 20:00:00 15.6 9 Norte 19 Norte 0 -- -- 87
2019-05-24 19:00:00 16.3 10 Norte 18 Norte 0 -- -- 84
2019-05-24 18:00:00 16.3 9 Norte 17 Noroeste 0 -- -- 87
2019-05-24 17:00:00 16.1 10 Norte 21 Noroeste 0 -- -- 85
2019-05-24 16:00:00 16.5 12 Noroeste 24 Noroeste 0 -- -- 83
2019-05-24 15:00:00 15.7 14 Noroeste 23 Norte 0 -- -- 87
2019-05-24 14:00:00 15.5 10 Noroeste 19 Oeste 0 -- -- 83
2019-05-24 13:00:00 14.1 12 Noroeste 23 Noroeste 0 -- -- 87
2019-05-24 12:00:00 14 8 Noroeste 22 Noroeste 0.2 -- -- 93
2019-05-24 11:00:00 15.3 9 Noroeste 24 Noroeste 0 -- -- 75
2019-05-24 10:00:00 14.4 7 Noroeste 14 Oeste 0 -- -- 79
2019-05-24 09:00:00 13.8 7 Sur 11 Sur 0 -- -- 83
2019-05-24 08:00:00 13.2 5 Oeste 10 Sudoeste 0 -- -- 85
2019-05-24 07:00:00 12.5 5 Oeste 8 Oeste 0 -- -- 88
2019-05-24 06:00:00 12.3 3 Sudoeste 5 Sur 0 -- -- 90
2019-05-24 05:00:00 12.5 2 Sur 4 Sur 0 -- -- 89
2019-05-24 04:00:00 12.9 0 Calma 6 Sudoeste 0 -- -- 88
2019-05-24 03:00:00 12.6 4 Sur 7 Sur 0 -- -- 91
2019-05-24 02:00:00 12.6 5 Sur 5 Sur 0 -- -- 89
2019-05-24 01:00:00 13.3 0 Calma 13 Oeste 0 -- -- 87
2019-05-24 00:00:00 13.4 6 Noroeste 15 Noroeste 0 -- -- 86
2019-05-23 23:00:00 13.1 3 Oeste 8 Sudoeste 0 -- -- 84
2019-05-23 22:00:00 13.4 2 Sudoeste 25 Noroeste 0 -- -- 79
2019-05-23 21:00:00 14.5 13 Noroeste 29 Noroeste 0 -- -- 77
2019-05-23 20:00:00 15.3 18 Noroeste 44 Oeste 0 -- -- 78
2019-05-23 19:00:00 16 23 Noroeste 42 Noroeste 0 -- -- 74
2019-05-23 18:00:00 15.7 24 Noroeste 41 Noroeste 0 -- -- 79
2019-05-23 17:00:00 17.6 20 Oeste 36 Oeste 0 -- -- 76
2019-05-23 16:00:00 17.3 18 Noroeste 37 Noroeste 0 -- -- 80
2019-05-23 15:00:00 18.4 12 Noroeste 24 Norte 0 -- -- 75
2019-05-23 14:00:00 16.9 9 Noroeste 21 Noroeste 0 -- -- 79
2019-05-23 13:00:00 18.6 12 Sur 24 Sur 0 -- -- 71
2019-05-23 12:00:00 18.4 10 Sudoeste 20 Sudoeste 0 -- -- 72
2019-05-23 11:00:00 17.5 4 Noroeste 17 Sudoeste 0 -- -- 71
2019-05-23 10:00:00 17.8 7 Sudoeste 18 Oeste 0 -- -- 67
2019-05-23 09:00:00 14.8 4 Este 12 Sudoeste 0 -- -- 76
2019-05-23 08:00:00 12.8 4 Sur 8 Sudeste 0 -- -- 82
2019-05-23 07:00:00 12.3 6 Sudeste 12 Oeste 0 -- -- 84
2019-05-23 06:00:00 12.6 5 Sudoeste 15 Sudeste 0 -- -- 84
2019-05-23 05:00:00 12.3 13 Sudeste 17 Sudeste 0 -- -- 91
2019-05-23 04:00:00 11.7 2 Sur 8 Oeste 0 -- -- 93
2019-05-23 03:00:00 11.5 5 Oeste 9 Sur 0 -- -- 92
2019-05-23 02:00:00 11.4 8 Sur 10 Sur 0 -- -- 87
2019-05-23 01:00:00 11.8 5 Sur 10 Sur 0 -- -- 82
2019-05-23 00:00:00 12.4 2 Sudoeste 6 Oeste 0 -- -- 87
2019-05-22 23:00:00 12.9 3 Sudeste 6 Sudeste 0 -- -- 86
2019-05-22 22:00:00 14.3 4 Oeste 9 Noroeste 0 -- -- 91
2019-05-22 21:00:00 15.6 6 Oeste 10 Oeste 0 -- -- 88
2019-05-22 20:00:00 17.1 5 Noroeste 10 Norte 0 -- -- 80
2019-05-22 19:00:00 17.8 4 Noroeste 11 Norte 0 -- -- 77
2019-05-22 18:00:00 17.9 6 Nordeste 13 Nordeste 0 -- -- 77
2019-05-22 17:00:00 17.8 6 Norte 12 Norte 0 -- -- 78
2019-05-22 16:00:00 17.9 6 Norte 14 Nordeste 0 -- -- 77
2019-05-22 15:00:00 17.1 4 Norte 12 Norte 0 -- -- 81
2019-05-22 14:00:00 16.2 6 Norte 15 Nordeste 0 -- -- 82
2019-05-22 13:00:00 16 9 Nordeste 16 Norte 0 -- -- 80
2019-05-22 12:00:00 15.4 8 Norte 14 Nordeste 0 -- -- 81
2019-05-22 11:00:00 15.5 7 Norte 13 Norte 0 -- -- 81
2019-05-22 10:00:00 14.2 3 Sur 10 Sudeste 0 -- -- 83
2019-05-22 09:00:00 12.7 5 Sudeste 11 Sur 0 -- -- 88
2019-05-22 08:00:00 12.4 6 Sudeste 11 Sudeste 0 -- -- 90
2019-05-22 07:00:00 11.9 6 Sudeste 12 Sur 0 -- -- 91
2019-05-22 06:00:00 10.7 8 Sur 9 Sur 0 -- -- 95
2019-05-22 05:00:00 11.1 7 Sur 10 Sudoeste 0 -- -- 90
2019-05-22 04:00:00 12.8 6 Sur 11 Sur 0 -- -- 87
2019-05-22 03:00:00 13.3 4 Oeste 9 Oeste 0 -- -- 91
2019-05-22 02:00:00 13.3 4 Oeste 6 Oeste 0 -- -- 91
2019-05-22 01:00:00 13.7 3 Oeste 5 Nordeste 0 -- -- 91
2019-05-22 00:00:00 13.8 2 Este 15 Este 0 -- -- 90
2019-05-21 23:00:00 13.9 9 Este 20 Nordeste 0 -- -- 89
2019-05-21 22:00:00 13.9 14 Nordeste 28 Este 0 -- -- 88
2019-05-21 21:00:00 14.2 16 Este 29 Nordeste 0 -- -- 86
2019-05-21 20:00:00 14.8 17 Nordeste 31 Nordeste 0 -- -- 83
2019-05-21 19:00:00 15.6 18 Nordeste 32 Este 0 -- -- 81
2019-05-21 18:00:00 16 19 Nordeste 34 Nordeste 0 -- -- 78
2019-05-21 17:00:00 16.1 21 Nordeste 34 Este 0 -- -- 78
2019-05-21 16:00:00 16.2 21 Nordeste 36 Este 0 -- -- 80
2019-05-21 15:00:00 16.2 21 Nordeste 34 Nordeste 0 -- -- 81
2019-05-21 14:00:00 16.2 20 Nordeste 29 Este 0 -- -- 78
2019-05-21 13:00:00 16.2 13 Nordeste 22 Nordeste 0 -- -- 76
2019-05-21 12:00:00 15.3 8 Norte 17 Nordeste 0 -- -- 77
2019-05-21 11:00:00 15.7 8 Nordeste 14 Este 0 -- -- 75
2019-05-21 10:00:00 14.1 4 Nordeste 9 Este 0 -- -- 80
2019-05-21 09:00:00 12.7 4 Sudeste 8 Sur 0 -- -- 90
2019-05-21 08:00:00 10.9 7 Sur 11 Sudeste 0 -- -- 95
2019-05-21 07:00:00 10.4 6 Sur 10 Sudeste 0 -- -- 94
2019-05-21 06:00:00 10.7 6 Sur 9 Sur 0 -- -- 94
2019-05-21 05:00:00 11 4 Sur 8 Sur 0 -- -- 94
2019-05-21 04:00:00 11.3 3 Sudoeste 5 Sudoeste 0 -- -- 94
2019-05-21 03:00:00 11.2 0 Calma 3 Sur 0 -- -- 93
2019-05-21 02:00:00 11.5 0 Calma 5 Oeste 0 -- -- 92
2019-05-21 01:00:00 11.6 2 Sur 6 Sur 0 -- -- 91
2019-05-21 00:00:00 11.9 3 Sur 8 Sudeste 0 -- -- 89